createdAt,value
2023-02-09T00:05:06.373Z,18.20
2023-02-09T00:10:05.812Z,18.20
2023-02-09T00:20:07.517Z,19.00
2023-02-09T00:25:05.918Z,17.10
2023-02-09T00:30:06.239Z,17.10
2023-02-09T00:35:06.828Z,17.60
2023-02-09T00:55:06.140Z,17.30
2023-02-09T01:05:06.066Z,17.50
2023-02-09T01:10:06.057Z,17.50
2023-02-09T01:25:07.359Z,17.00
2023-02-09T01:30:06.090Z,17.00
2023-02-09T01:35:06.224Z,16.90
2023-02-09T01:55:09.958Z,16.80
2023-02-09T02:00:12.402Z,16.80
2023-02-09T02:05:07.173Z,20.40
2023-02-09T02:10:06.520Z,20.40
2023-02-09T02:15:06.827Z,16.00
2023-02-09T02:25:19.136Z,16.00
2023-02-09T02:30:18.671Z,16.00
2023-02-09T02:45:16.940Z,17.10
2023-02-09T02:55:10.725Z,16.70
2023-02-09T03:00:12.378Z,16.70
2023-02-09T03:20:23.246Z,16.80
2023-02-09T03:25:09.393Z,18.00
2023-02-09T03:30:08.051Z,18.00
2023-02-09T03:35:08.871Z,16.80
2023-02-09T03:40:06.727Z,16.80
2023-02-09T03:50:06.534Z,17.90
2023-02-09T04:00:06.974Z,17.30
2023-02-09T04:05:06.965Z,17.70
2023-02-09T04:10:06.578Z,17.70
2023-02-09T04:15:06.398Z,18.60
2023-02-09T04:20:06.516Z,18.60
2023-02-09T04:25:06.341Z,16.70
2023-02-09T04:30:06.739Z,16.70
2023-02-09T04:35:06.368Z,17.20
2023-02-09T04:50:06.445Z,19.70
2023-02-09T04:55:06.398Z,20.60
2023-02-09T05:05:06.392Z,18.80
2023-02-09T05:10:06.628Z,18.80
2023-02-09T05:15:06.560Z,18.90
2023-02-09T05:20:07.307Z,18.90
2023-02-09T05:25:06.556Z,16.90
2023-02-09T05:30:06.706Z,16.90
2023-02-09T05:35:08.438Z,16.80
2023-02-09T05:40:07.023Z,16.80
2023-02-09T05:45:07.305Z,18.40
2023-02-09T05:50:06.595Z,18.40
2023-02-09T05:55:06.513Z,18.60
2023-02-09T06:05:06.753Z,17.20
2023-02-09T06:10:06.928Z,17.20
2023-02-09T06:20:07.151Z,18.70
2023-02-09T06:25:06.685Z,18.90
2023-02-09T06:40:06.788Z,17.10
2023-02-09T06:50:07.775Z,17.90
2023-02-09T06:55:06.892Z,16.40
2023-02-09T07:00:08.609Z,16.40
2023-02-09T07:05:06.717Z,17.60
2023-02-09T07:10:08.385Z,17.60
2023-02-09T07:20:08.173Z,18.80
2023-02-09T07:35:07.008Z,18.20
2023-02-09T07:45:09.128Z,17.00
2023-02-09T08:00:07.167Z,17.20
2023-02-09T08:05:16.324Z,17.90
2023-02-09T08:10:06.887Z,17.90
2023-02-09T08:15:07.483Z,16.20
2023-02-09T08:20:13.195Z,16.20
2023-02-09T08:25:07.629Z,15.80
2023-02-09T08:30:07.301Z,15.80
2023-02-09T08:35:07.115Z,16.40
2023-02-09T08:40:07.067Z,16.40
2023-02-09T08:45:07.139Z,17.40
2023-02-09T08:50:07.217Z,17.40
2023-02-09T09:00:07.265Z,17.20
2023-02-09T09:05:07.223Z,16.90
2023-02-09T09:15:07.202Z,18.70
2023-02-09T09:20:07.670Z,18.70
2023-02-09T09:25:07.172Z,18.90
2023-02-09T09:30:07.486Z,18.90
2023-02-09T09:35:07.216Z,20.30
2023-02-09T09:40:07.222Z,20.30
2023-02-09T09:45:13.727Z,19.30
2023-02-09T09:55:12.561Z,19.90
2023-02-09T10:00:18.108Z,19.90
2023-02-09T10:05:18.788Z,22.70
2023-02-09T10:10:20.268Z,22.70
2023-02-09T10:15:17.091Z,24.00
2023-02-09T10:20:08.392Z,24.00
2023-02-09T10:25:26.978Z,22.00
2023-02-09T10:30:18.079Z,22.00
2023-02-09T10:35:26.838Z,21.90
2023-02-09T10:40:14.829Z,21.90
2023-02-09T10:45:16.141Z,24.20
2023-02-09T10:50:16.070Z,24.20
2023-02-09T10:55:20.513Z,24.10
2023-02-09T11:10:12.390Z,25.20
2023-02-09T11:15:12.609Z,29.80
2023-02-09T11:20:19.234Z,29.80
2023-02-09T11:25:21.145Z,26.30
2023-02-09T11:30:27.162Z,26.30
2023-02-09T11:35:11.076Z,27.60
2023-02-09T11:40:14.559Z,27.60
2023-02-09T11:45:21.270Z,28.20
2023-02-09T12:00:16.952Z,26.80
2023-02-09T12:05:11.370Z,29.50
2023-02-09T12:10:27.230Z,29.50
2023-02-09T12:15:14.087Z,31.70
2023-02-09T12:25:10.706Z,32.30
2023-02-09T12:30:27.250Z,32.30
2023-02-09T12:35:24.669Z,35.00
2023-02-09T12:40:10.557Z,35.00
2023-02-09T12:45:27.359Z,31.80
2023-02-09T12:50:27.338Z,31.80
2023-02-09T13:00:17.838Z,33.70
2023-02-09T13:15:16.654Z,33.00
2023-02-09T13:20:28.092Z,33.00
2023-02-09T13:25:25.926Z,36.80
2023-02-09T13:30:22.265Z,36.80
2023-02-09T13:35:18.054Z,38.30
2023-02-09T13:50:15.415Z,37.30
2023-02-09T14:00:15.749Z,39.30
2023-02-09T14:05:08.041Z,37.80
2023-02-09T14:15:20.333Z,37.40
2023-02-09T14:20:20.457Z,37.40
2023-02-09T14:35:18.560Z,40.40
2023-02-09T14:40:07.721Z,40.40
2023-02-09T14:45:15.139Z,38.40
2023-02-09T14:50:12.276Z,38.40
2023-02-09T14:55:15.341Z,34.30
2023-02-09T15:00:18.226Z,34.30
2023-02-09T15:05:09.295Z,41.70
2023-02-09T15:10:22.379Z,41.70
2023-02-09T15:25:08.872Z,41.80
2023-02-09T15:30:15.865Z,41.80
2023-02-09T15:35:12.123Z,37.70
2023-02-09T15:45:29.629Z,38.70
2023-02-09T15:50:08.026Z,38.70
2023-02-09T15:55:15.668Z,37.10
2023-02-09T16:05:07.983Z,40.90
2023-02-09T16:10:12.694Z,40.90
2023-02-09T16:15:14.160Z,33.70
2023-02-09T16:25:18.603Z,32.30
2023-02-09T16:30:14.910Z,32.30
2023-02-09T16:35:16.659Z,30.00
2023-02-09T16:45:12.682Z,28.80
2023-02-09T16:55:21.271Z,28.40
2023-02-09T17:00:08.656Z,28.40
2023-02-09T17:20:13.514Z,20.00
2023-02-09T17:40:13.163Z,20.60
2023-02-09T17:45:21.662Z,14.60
2023-02-09T17:55:25.510Z,18.70
2023-02-09T18:00:09.925Z,18.70
2023-02-09T18:05:15.215Z,15.50
2023-02-09T18:10:08.525Z,15.50
2023-02-09T18:15:19.775Z,17.20
2023-02-09T18:20:14.802Z,17.20
2023-02-09T18:25:16.922Z,18.90
2023-02-09T18:30:08.777Z,18.90
2023-02-09T18:35:13.303Z,20.30
2023-02-09T18:45:11.276Z,24.30
2023-02-09T18:50:13.686Z,24.30
2023-02-09T18:55:08.361Z,35.80
2023-02-09T19:05:08.517Z,29.00
2023-02-09T19:10:11.366Z,29.00
2023-02-09T19:15:09.039Z,18.30
2023-02-09T19:40:18.984Z,17.50
2023-02-09T19:45:08.622Z,15.30
2023-02-09T19:50:09.879Z,15.30
2023-02-09T19:55:10.802Z,14.80
2023-02-09T20:00:13.550Z,14.80
2023-02-09T20:05:08.770Z,13.50
2023-02-09T20:20:08.999Z,15.50
2023-02-09T20:25:09.648Z,19.60
2023-02-09T20:40:10.318Z,13.50
2023-02-09T20:45:24.238Z,13.80
2023-02-09T20:55:08.783Z,14.40
2023-02-09T21:00:09.480Z,14.40
2023-02-09T21:05:08.882Z,14.40
2023-02-09T21:10:11.764Z,14.40
2023-02-09T21:15:08.937Z,12.90
2023-02-09T21:20:08.957Z,12.90
2023-02-09T21:25:10.584Z,13.10
2023-02-09T21:30:09.212Z,13.10
2023-02-09T21:35:09.248Z,15.10
2023-02-09T21:40:11.275Z,15.10
2023-02-09T21:45:08.896Z,12.50
2023-02-09T21:50:10.694Z,12.50
2023-02-09T21:55:08.997Z,14.30
2023-02-09T22:00:10.556Z,14.30
2023-02-09T22:05:08.839Z,10.30
2023-02-09T22:15:09.795Z,12.30
2023-02-09T22:20:10.031Z,12.30
2023-02-09T22:25:08.932Z,14.00
2023-02-09T22:35:08.883Z,12.00
2023-02-09T22:55:09.051Z,10.50
2023-02-09T23:00:12.004Z,10.50
2023-02-09T23:10:09.050Z,13.20
2023-02-09T23:25:09.111Z,13.10
2023-02-09T23:30:09.536Z,13.10
2023-02-09T23:35:09.115Z,13.90
2023-02-09T23:40:09.744Z,13.90
2023-02-09T23:55:09.163Z,10.00
